Whiting Field Naval Air Station North Airport
KNSE : now visible

Aeroporto :











RITROVATECI SU...

 
LOGIN :

Iscrizione | Disclaimer

   EN    FR    IT 

 









Sommario :    VFR   VFR Marginale   IFR   IFR Intensivo   IFR Molto Intensivo
Visibilità : 
Base nubi : 
>= 8 km
>= 3000ft
5 / 8 km
1000 / 3000 ft
1500m / 5 km
500 / 1000 ft
800 / 1500m
200 / 500 ft
< 800m
< 200 ft
Simboli :   Temporali  Nebbia  Neve Forte  Precipitazioni Forti  Vento > 20 kt






- Altitudine del aeroporto : 199 ft


KNSE - Whiting Field Naval Air Station North

ULTIMO METAR :
  • 250756Z AUTO 36003KT 10SM CLR 06/03 A3012 RMK AO2 SLP187 T00560028 PNO $

METARs OBSOLETI :
  • 250656Z AUTO 35004KT 10SM CLR 07/03 A3011 RMK AO2 SLP185 T00670028 PNO $
  • 250556Z AUTO 34004KT 10SM CLR 08/03 A3011 RMK AO2 SLP185 6//// T00780033 10117 20072 401720072 51014 PNO $

TAF TAF KNSE
Valido dal 25 a 07 ore il 26 a 07 ore UTC


2507/2607 34005KT 9999 FEW025 QNH3008INS
TEMPO 2513/2519 33010G15KT
FM252300 VRB06KT 9999 SKC QNH3011INS AUTOMATED SENSOR METWATCH 2507 TIL 2712 T04/2512Z T15/2520Z FN00213



MetMap, La meteo Aeronautica in un colpo d'occhio ! - Copyright ORBIFLY Dicembre 2007 - Disclaimer

ORBIFLY MET'MAP TEAM :

Programmazione e sviluppo : Alexandra Zaïnal
Concezione : Baudouin d'Aumeries
Aiuto per la programmazione : Marc-Olivier Méhu
Supporto tecnico e logistico : Manuel Goepfert
Aiuto per la traduzione : Arnaldo La Scala

Contatto : metmap@orbifly.com




FONTI E CREDITI :

   NOAA       Earth
Advisory